createdAt,value
2023-10-23T00:01:08.564Z,97397.06
2023-10-23T00:03:36.490Z,97397.56
2023-10-23T00:06:04.615Z,97387.16
2023-10-23T00:08:32.430Z,97387.13
2023-10-23T00:11:00.197Z,97392.31
2023-10-23T00:13:27.946Z,97392.88
2023-10-23T00:15:55.939Z,97391.88
2023-10-23T00:18:23.789Z,97387.41
2023-10-23T00:20:51.667Z,97386.13
2023-10-23T00:23:19.431Z,97375.44
2023-10-23T00:25:47.301Z,97381.94
2023-10-23T00:28:15.045Z,97383.50
2023-10-23T00:30:43.376Z,97376.69
2023-10-23T00:33:11.532Z,97383.63
2023-10-23T00:35:40.383Z,97380.78
2023-10-23T00:38:08.098Z,97375.03
2023-10-23T00:40:35.912Z,97374.53
2023-10-23T00:43:18.918Z,97383.97
2023-10-23T00:46:03.253Z,97387.13
2023-10-23T00:48:31.007Z,97382.38
2023-10-23T00:51:00.120Z,97386.56
2023-10-23T00:53:29.619Z,97374.88
2023-10-23T00:55:58.378Z,97382.16
2023-10-23T00:58:26.793Z,97382.41
2023-10-23T01:00:58.186Z,97379.31
2023-10-23T01:03:27.279Z,97383.22
2023-10-23T01:05:55.267Z,97380.88
2023-10-23T01:08:23.002Z,97383.75
2023-10-23T01:10:50.781Z,97386.38
2023-10-23T01:13:19.168Z,97387.06
2023-10-23T01:15:46.962Z,97384.97
2023-10-23T01:18:14.799Z,97388.16
2023-10-23T01:20:43.028Z,97398.31
2023-10-23T01:23:10.840Z,97407.19
2023-10-23T01:25:39.435Z,97414.53
2023-10-23T01:28:07.200Z,97407.69
2023-10-23T01:30:35.168Z,97407.53
2023-10-23T01:33:02.953Z,97412.16
2023-10-23T01:35:30.780Z,97409.00
2023-10-23T01:37:58.508Z,97410.31
2023-10-23T01:40:26.269Z,97401.94
2023-10-23T01:42:54.003Z,97403.28
2023-10-23T01:45:21.793Z,97415.00
2023-10-23T01:47:49.594Z,97407.19
2023-10-23T01:50:17.407Z,97414.78
2023-10-23T01:52:46.214Z,97395.00
2023-10-23T01:55:14.039Z,97400.19
2023-10-23T01:57:41.971Z,97396.50
2023-10-23T02:00:11.723Z,97386.56
2023-10-23T02:02:43.202Z,97389.72
2023-10-23T02:05:11.245Z,97390.19
2023-10-23T02:07:39.103Z,97383.91
2023-10-23T02:10:07.377Z,97385.81
2023-10-23T02:12:35.185Z,97392.00
2023-10-23T02:15:05.261Z,97394.59
2023-10-23T02:17:33.248Z,97400.66
2023-10-23T02:20:01.270Z,97394.66
2023-10-23T02:22:29.039Z,97399.03
2023-10-23T02:24:56.819Z,97385.75
2023-10-23T02:27:24.679Z,97397.00
2023-10-23T02:29:52.505Z,97396.75
2023-10-23T02:32:20.325Z,97401.72
2023-10-23T02:34:49.428Z,97392.34
2023-10-23T02:37:17.528Z,97401.97
2023-10-23T02:39:45.372Z,97397.50
2023-10-23T02:42:13.258Z,97408.50
2023-10-23T02:44:40.973Z,97409.00
2023-10-23T02:47:08.823Z,97412.38
2023-10-23T02:49:36.617Z,97407.66
2023-10-23T02:52:04.919Z,97415.56
2023-10-23T02:54:32.664Z,97418.41
2023-10-23T02:57:00.540Z,97415.25
2023-10-23T02:59:28.396Z,97416.28
2023-10-23T03:01:56.550Z,97407.16
2023-10-23T03:04:24.397Z,97417.84
2023-10-23T03:06:52.261Z,97414.19
2023-10-23T03:09:20.030Z,97410.53
2023-10-23T03:11:47.852Z,97405.88
2023-10-23T03:14:15.814Z,97403.03
2023-10-23T03:16:43.833Z,97412.69
2023-10-23T03:19:11.618Z,97412.69
2023-10-23T03:21:39.387Z,97406.47
2023-10-23T03:24:07.606Z,97409.38
2023-10-23T03:26:35.456Z,97416.19
2023-10-23T03:29:04.603Z,97420.63
2023-10-23T03:31:34.149Z,97412.59
2023-10-23T03:34:02.066Z,97409.38
2023-10-23T03:36:29.945Z,97402.66
2023-10-23T03:38:57.768Z,97412.50
2023-10-23T03:41:27.056Z,97402.16
2023-10-23T03:43:54.870Z,97407.88
2023-10-23T03:46:23.277Z,97401.88
2023-10-23T03:48:53.392Z,97406.84
2023-10-23T03:51:21.420Z,97399.56
2023-10-23T03:53:49.205Z,97405.34
2023-10-23T03:56:16.997Z,97405.97
2023-10-23T03:58:45.867Z,97404.28
2023-10-23T04:01:13.925Z,97404.97
2023-10-23T04:03:41.754Z,97402.25
2023-10-23T04:06:09.562Z,97408.88
2023-10-23T04:08:37.279Z,97398.97
2023-10-23T04:11:05.262Z,97404.22
2023-10-23T04:13:35.507Z,97397.06
2023-10-23T04:16:03.917Z,97399.91
2023-10-23T04:18:31.911Z,97408.34
2023-10-23T04:21:04.065Z,97400.78
2023-10-23T04:23:32.534Z,97404.19
2023-10-23T04:26:00.486Z,97410.44
2023-10-23T04:28:28.385Z,97415.69
2023-10-23T04:30:56.878Z,97412.09
2023-10-23T04:33:24.990Z,97414.19
2023-10-23T04:35:53.808Z,97417.13
2023-10-23T04:38:21.872Z,97417.13
2023-10-23T04:40:51.564Z,97416.56
2023-10-23T04:43:19.498Z,97426.03
2023-10-23T04:45:47.445Z,97424.97
2023-10-23T04:48:15.354Z,97430.16
2023-10-23T04:50:43.480Z,97438.41
2023-10-23T04:53:11.769Z,97444.50
2023-10-23T04:55:40.542Z,97439.53
2023-10-23T04:58:09.052Z,97441.28
2023-10-23T05:00:37.733Z,97430.47
2023-10-23T05:03:05.808Z,97439.16
2023-10-23T05:05:33.968Z,97448.28
2023-10-23T05:08:01.914Z,97447.41
2023-10-23T05:10:29.711Z,97447.56
2023-10-23T05:12:58.308Z,97451.72
2023-10-23T05:15:26.141Z,97455.06
2023-10-23T05:17:53.958Z,97456.47
2023-10-23T05:20:22.207Z,97456.47
2023-10-23T05:22:49.960Z,97464.91
2023-10-23T05:25:17.762Z,97469.19
2023-10-23T05:27:45.565Z,97476.59
2023-10-23T05:30:13.439Z,97467.09
2023-10-23T05:32:41.293Z,97467.53
2023-10-23T05:35:09.421Z,97471.31
2023-10-23T05:37:37.535Z,97466.38
2023-10-23T05:40:06.160Z,97468.78
2023-10-23T05:42:34.120Z,97480.72
2023-10-23T05:45:04.057Z,97473.50
2023-10-23T05:47:32.024Z,97480.31
2023-10-23T05:49:59.809Z,97477.69
2023-10-23T05:52:27.630Z,97482.91
2023-10-23T05:54:55.426Z,97486.28
2023-10-23T05:57:23.309Z,97480.47
2023-10-23T05:59:51.095Z,97478.31
2023-10-23T06:02:18.904Z,97481.03
2023-10-23T06:04:46.778Z,97473.06
2023-10-23T06:07:14.815Z,97481.34
2023-10-23T06:09:42.812Z,97486.28
2023-10-23T06:12:12.689Z,97485.31
2023-10-23T06:14:40.428Z,97491.63
2023-10-23T06:17:08.825Z,97492.47
2023-10-23T06:19:37.991Z,97503.72
2023-10-23T06:22:06.080Z,97502.16
2023-10-23T06:24:33.886Z,97504.31
2023-10-23T06:27:01.701Z,97508.84
2023-10-23T06:29:29.476Z,97516.63
2023-10-23T06:31:57.945Z,97518.94
2023-10-23T06:34:25.767Z,97517.00
2023-10-23T06:36:53.609Z,97508.56
2023-10-23T06:39:21.384Z,97513.22
2023-10-23T06:41:50.778Z,97515.84
2023-10-23T06:44:20.422Z,97521.09
2023-10-23T06:46:48.303Z,97518.47
2023-10-23T06:49:16.077Z,97518.53
2023-10-23T06:51:43.915Z,97525.31
2023-10-23T06:54:12.438Z,97527.91
2023-10-23T06:56:40.288Z,97532.91
2023-10-23T06:59:08.066Z,97529.81
2023-10-23T07:01:44.503Z,97527.16
2023-10-23T07:04:13.336Z,97537.06
2023-10-23T07:06:41.201Z,97531.00
2023-10-23T07:09:09.075Z,97533.09
2023-10-23T07:11:36.856Z,97531.59
2023-10-23T07:14:04.739Z,97537.84
2023-10-23T07:16:32.583Z,97532.59
2023-10-23T07:19:00.485Z,97538.84
2023-10-23T07:21:28.688Z,97533.63
2023-10-23T07:23:56.559Z,97538.84
2023-10-23T07:26:24.305Z,97545.88
2023-10-23T07:28:52.136Z,97547.25
2023-10-23T07:31:19.966Z,97537.28
2023-10-23T07:33:47.842Z,97546.16
2023-10-23T07:36:16.177Z,97540.16
2023-10-23T07:38:44.543Z,97549.25
2023-10-23T07:41:13.150Z,97545.56
2023-10-23T07:43:42.497Z,97550.66
2023-10-23T07:46:16.654Z,97554.34
2023-10-23T07:48:46.179Z,97551.69
2023-10-23T07:51:14.340Z,97545.91
2023-10-23T07:53:42.197Z,97555.84
2023-10-23T07:56:10.044Z,97545.84
2023-10-23T07:58:37.918Z,97547.56
2023-10-23T08:01:06.733Z,97548.25
2023-10-23T08:03:35.356Z,97560.31
2023-10-23T08:06:04.686Z,97553.72
2023-10-23T08:08:36.132Z,97548.31
2023-10-23T08:11:04.962Z,97551.66
2023-10-23T08:13:33.132Z,97546.09
2023-10-23T08:16:01.729Z,97545.31
2023-10-23T08:18:39.033Z,97532.31
2023-10-23T08:21:15.868Z,97540.16
2023-10-23T08:23:55.336Z,97544.50
2023-10-23T08:26:23.510Z,97538.19
2023-10-23T08:31:37.249Z,97547.94
2023-10-23T08:34:07.778Z,97547.16
2023-10-23T08:36:35.993Z,97537.06
2023-10-23T08:39:06.591Z,97535.84
2023-10-23T08:41:35.792Z,97551.00
2023-10-23T08:44:04.421Z,97544.63
2023-10-23T08:46:34.149Z,97553.38
2023-10-23T08:49:02.822Z,97546.34
2023-10-23T08:51:31.442Z,97539.44
2023-10-23T08:54:23.260Z,97526.75
2023-10-23T08:56:58.555Z,97532.41
2023-10-23T08:59:26.405Z,97527.81
2023-10-23T09:02:01.465Z,97518.97
2023-10-23T09:04:30.338Z,97523.72
2023-10-23T09:07:00.840Z,97531.88
2023-10-23T09:09:29.842Z,97520.34
2023-10-23T09:11:57.654Z,97525.59
2023-10-23T09:14:29.583Z,97527.78
2023-10-23T09:16:57.692Z,97527.53
2023-10-23T09:19:40.225Z,97525.94
2023-10-23T09:22:09.366Z,97521.91
2023-10-23T09:24:37.886Z,97512.94
2023-10-23T09:27:05.810Z,97514.59
2023-10-23T09:29:36.183Z,97505.31
2023-10-23T09:32:06.499Z,97505.81
2023-10-23T09:34:34.665Z,97508.16
2023-10-23T09:37:02.513Z,97510.53
2023-10-23T09:39:30.419Z,97503.97
2023-10-23T09:41:58.193Z,97502.22
2023-10-23T09:44:26.037Z,97504.47
2023-10-23T09:46:54.044Z,97504.41
2023-10-23T09:49:22.268Z,97501.88
2023-10-23T09:51:52.257Z,97488.19
2023-10-23T09:54:23.151Z,97488.63
2023-10-23T09:56:54.464Z,97483.44
2023-10-23T09:59:48.810Z,97474.97
2023-10-23T10:02:16.757Z,97469.50
2023-10-23T10:05:06.845Z,97464.13
2023-10-23T10:08:05.410Z,97458.81
2023-10-23T10:10:36.111Z,97455.63
2023-10-23T10:13:04.143Z,97456.47
2023-10-23T10:15:32.658Z,97450.88
2023-10-23T10:18:00.572Z,97444.94
2023-10-23T10:20:28.452Z,97447.13
2023-10-23T10:23:05.298Z,97447.91
2023-10-23T10:25:33.206Z,97438.75
2023-10-23T10:28:04.338Z,97427.97
2023-10-23T10:30:46.475Z,97431.72
2023-10-23T10:34:25.420Z,97426.78
2023-10-23T10:36:09.197Z,97426.44
2023-10-23T10:38:37.198Z,97422.69
2023-10-23T10:41:06.619Z,97423.34
2023-10-23T10:43:36.020Z,97431.31
2023-10-23T10:46:07.107Z,97426.41
2023-10-23T10:48:45.380Z,97415.88
2023-10-23T10:51:19.580Z,97418.47
2023-10-23T10:53:47.723Z,97421.28
2023-10-23T10:56:15.930Z,97421.78
2023-10-23T10:58:44.318Z,97411.50
2023-10-23T11:01:12.401Z,97409.94
2023-10-23T11:03:42.612Z,97409.31
2023-10-23T11:06:11.806Z,97403.28
2023-10-23T11:08:42.707Z,97410.84
2023-10-23T11:11:10.854Z,97409.44
2023-10-23T11:13:38.702Z,97407.22
2023-10-23T11:16:06.912Z,97403.91
2023-10-23T11:18:34.740Z,97397.78
2023-10-23T11:21:02.664Z,97393.59
2023-10-23T11:23:31.067Z,97397.66
2023-10-23T11:25:58.954Z,97392.09
2023-10-23T11:28:26.829Z,97396.03
2023-10-23T11:30:58.854Z,97389.31
2023-10-23T11:33:26.852Z,97393.81
2023-10-23T11:35:55.012Z,97384.50
2023-10-23T11:38:24.205Z,97393.19
2023-10-23T11:40:52.173Z,97389.16
2023-10-23T11:43:20.313Z,97388.97
2023-10-23T11:45:48.485Z,97377.97
2023-10-23T11:48:16.415Z,97382.66
2023-10-23T11:50:44.323Z,97386.53
2023-10-23T11:53:12.254Z,97370.25
2023-10-23T11:55:40.110Z,97366.34
2023-10-23T11:58:08.034Z,97371.94
2023-10-23T12:00:36.567Z,97367.13
2023-10-23T12:03:05.954Z,97381.72
2023-10-23T12:05:33.951Z,97385.28
2023-10-23T12:08:01.801Z,97376.88
2023-10-23T12:10:29.926Z,97382.97
2023-10-23T12:12:57.875Z,97376.41
2023-10-23T12:15:25.822Z,97366.03
2023-10-23T12:17:53.687Z,97371.94
2023-10-23T12:20:24.323Z,97380.63
2023-10-23T12:22:53.152Z,97373.91
2023-10-23T12:25:21.415Z,97372.09
2023-10-23T12:27:49.347Z,97380.16
2023-10-23T12:30:27.117Z,97375.84
2023-10-23T12:33:20.997Z,97384.47
2023-10-23T12:35:50.143Z,97383.19
2023-10-23T12:38:19.239Z,97380.34
2023-10-23T12:40:47.593Z,97384.00
2023-10-23T12:43:15.755Z,97386.66
2023-10-23T12:45:44.071Z,97382.84
2023-10-23T12:48:12.035Z,97381.41
2023-10-23T12:50:39.930Z,97389.13
2023-10-23T12:53:11.156Z,97380.69
2023-10-23T12:55:39.277Z,97378.59
2023-10-23T12:58:07.147Z,97383.25
2023-10-23T13:03:02.681Z,97383.00
2023-10-23T13:05:30.610Z,97379.91
2023-10-23T13:07:58.440Z,97376.47
2023-10-23T13:10:26.470Z,97374.13
2023-10-23T13:12:54.376Z,97371.78
2023-10-23T13:15:22.264Z,97366.91
2023-10-23T13:17:50.116Z,97361.25
2023-10-23T13:21:31.046Z,97370.38
2023-10-23T13:23:05.765Z,97362.47
2023-10-23T13:25:35.932Z,97366.13
2023-10-23T13:28:05.918Z,97372.69
2023-10-23T13:30:34.018Z,97374.97
2023-10-23T13:33:02.309Z,97372.53
2023-10-23T13:35:30.215Z,97363.72
2023-10-23T13:37:58.043Z,97367.59
2023-10-23T13:40:25.886Z,97379.75
2023-10-23T13:42:54.221Z,97376.63
2023-10-23T13:45:22.074Z,97374.31
2023-10-23T13:47:49.835Z,97379.50
2023-10-23T13:50:17.658Z,97381.06
2023-10-23T13:52:45.448Z,97379.19
2023-10-23T13:55:13.289Z,97368.25
2023-10-23T13:57:41.053Z,97374.03
2023-10-23T14:00:10.994Z,97378.53
2023-10-23T14:02:41.994Z,97378.63
2023-10-23T14:05:09.871Z,97379.59
2023-10-23T14:07:37.777Z,97376.72
2023-10-23T14:10:06.204Z,97373.44
2023-10-23T14:12:34.072Z,97378.72
2023-10-23T14:15:02.428Z,97382.09
2023-10-23T14:17:33.277Z,97379.00
2023-10-23T14:20:01.260Z,97378.53
2023-10-23T14:22:29.105Z,97379.63
2023-10-23T14:24:57.351Z,97382.03
2023-10-23T14:27:25.495Z,97378.28
2023-10-23T14:29:53.359Z,97381.44
2023-10-23T14:32:21.749Z,97386.53
2023-10-23T14:34:49.743Z,97373.03
2023-10-23T14:37:17.641Z,97380.81
2023-10-23T14:39:45.884Z,97381.09
2023-10-23T14:42:13.714Z,97375.97
2023-10-23T14:44:41.489Z,97373.63
2023-10-23T14:47:10.132Z,97375.78
2023-10-23T14:49:38.266Z,97378.47
2023-10-23T14:52:06.335Z,97372.97
2023-10-23T14:54:34.229Z,97379.63
2023-10-23T14:57:03.921Z,97371.88
2023-10-23T14:59:31.752Z,97371.09
2023-10-23T15:02:00.094Z,97368.53
2023-10-23T15:04:28.159Z,97372.91
2023-10-23T15:06:56.050Z,97371.81
2023-10-23T15:09:23.867Z,97363.66
2023-10-23T15:11:51.756Z,97370.66
2023-10-23T15:14:19.542Z,97364.13
2023-10-23T15:16:47.699Z,97371.25
2023-10-23T15:19:15.769Z,97369.91
2023-10-23T15:21:43.804Z,97369.38
2023-10-23T15:24:12.129Z,97385.69
2023-10-23T15:26:40.021Z,97383.50
2023-10-23T15:29:08.591Z,97383.22
2023-10-23T15:31:36.684Z,97391.91
2023-10-23T15:34:04.660Z,97393.22
2023-10-23T15:36:32.652Z,97397.94
2023-10-23T15:39:00.425Z,97392.09
2023-10-23T15:41:28.345Z,97400.06
2023-10-23T15:43:56.958Z,97399.59
2023-10-23T15:46:25.340Z,97401.63
2023-10-23T15:48:53.220Z,97414.75
2023-10-23T15:51:21.063Z,97415.59
2023-10-23T15:53:49.080Z,97411.25
2023-10-23T15:56:16.939Z,97419.56
2023-10-23T15:58:44.880Z,97423.38
2023-10-23T16:01:12.776Z,97428.19
2023-10-23T16:03:40.864Z,97431.22
2023-10-23T16:06:09.670Z,97436.50
2023-10-23T16:08:38.378Z,97431.56
2023-10-23T16:11:06.394Z,97428.78
2023-10-23T16:13:38.150Z,97432.28
2023-10-23T16:16:16.667Z,97434.41
2023-10-23T16:18:45.808Z,97434.41
2023-10-23T16:21:14.471Z,97435.72
2023-10-23T16:23:42.464Z,97447.13
2023-10-23T16:26:11.398Z,97441.44
2023-10-23T16:28:40.092Z,97438.13
2023-10-23T16:31:13.907Z,97446.72
2023-10-23T16:33:42.298Z,97450.63
2023-10-23T16:36:10.288Z,97449.69
2023-10-23T16:38:38.331Z,97448.44
2023-10-23T16:41:06.289Z,97459.66
2023-10-23T16:43:40.979Z,97450.84
2023-10-23T16:46:09.385Z,97450.91
2023-10-23T16:48:37.275Z,97453.25
2023-10-23T16:51:05.560Z,97456.56
2023-10-23T16:53:35.724Z,97466.16
2023-10-23T16:56:04.811Z,97452.94
2023-10-23T16:58:33.001Z,97457.59
2023-10-23T17:01:05.091Z,97470.81
2023-10-23T17:03:36.373Z,97468.47
2023-10-23T17:06:10.564Z,97477.91
2023-10-23T17:08:38.581Z,97478.56
2023-10-23T17:11:08.657Z,97484.19
2023-10-23T17:13:37.342Z,97480.84
2023-10-23T17:16:08.436Z,97482.88
2023-10-23T17:18:36.555Z,97479.88
2023-10-23T17:21:04.752Z,97480.31
2023-10-23T17:23:33.102Z,97484.56
2023-10-23T17:26:01.718Z,97486.81
2023-10-23T17:28:29.760Z,97481.53
2023-10-23T17:31:00.370Z,97489.44
2023-10-23T17:33:31.674Z,97481.59
2023-10-23T17:36:00.085Z,97481.66
2023-10-23T17:38:28.129Z,97478.88
2023-10-23T17:40:58.854Z,97478.75
2023-10-23T17:43:26.835Z,97482.47
2023-10-23T17:45:55.303Z,97485.94
2023-10-23T17:48:23.369Z,97487.53
2023-10-23T17:50:53.034Z,97481.97
2023-10-23T17:53:21.090Z,97489.75
2023-10-23T17:55:49.165Z,97489.72
2023-10-23T17:58:17.229Z,97489.22
2023-10-23T18:00:45.115Z,97491.41
2023-10-23T18:03:13.076Z,97488.06
2023-10-23T18:05:41.114Z,97496.19
2023-10-23T18:08:09.283Z,97503.50
2023-10-23T18:10:39.043Z,97500.59
2023-10-23T18:13:07.324Z,97499.34
2023-10-23T18:15:35.254Z,97507.13
2023-10-23T18:18:03.320Z,97513.69
2023-10-23T18:20:31.637Z,97520.22
2023-10-23T18:23:00.637Z,97523.38
2023-10-23T18:25:28.889Z,97515.56
2023-10-23T18:27:57.019Z,97528.06
2023-10-23T18:30:26.774Z,97536.72
2023-10-23T18:32:54.865Z,97531.19
2023-10-23T18:35:22.731Z,97536.97
2023-10-23T18:37:50.847Z,97544.78
2023-10-23T18:40:18.998Z,97541.38
2023-10-23T18:42:47.589Z,97540.09
2023-10-23T18:45:15.642Z,97539.56
2023-10-23T18:47:43.855Z,97534.34
2023-10-23T18:50:11.888Z,97540.38
2023-10-23T18:52:39.745Z,97536.44
2023-10-23T18:55:08.385Z,97529.16
2023-10-23T18:57:36.881Z,97534.34
2023-10-23T19:00:05.252Z,97529.13
2023-10-23T19:02:33.374Z,97528.09
2023-10-23T19:05:01.433Z,97520.75
2023-10-23T19:07:29.427Z,97521.78
2023-10-23T19:09:58.254Z,97517.88
2023-10-23T19:12:26.129Z,97513.69
2023-10-23T19:14:54.129Z,97520.22
2023-10-23T19:17:36.836Z,97524.13
2023-10-23T19:20:09.036Z,97529.38
2023-10-23T19:22:38.629Z,97532.22
2023-10-23T19:25:07.625Z,97535.34
2023-10-23T19:27:35.947Z,97546.03
2023-10-23T19:30:05.242Z,97541.88
2023-10-23T19:32:33.318Z,97543.69
2023-10-23T19:35:01.480Z,97542.13
2023-10-23T19:37:29.738Z,97538.97
2023-10-23T19:39:59.422Z,97537.19
2023-10-23T19:42:27.343Z,97540.59
2023-10-23T19:44:55.576Z,97546.34
2023-10-23T19:47:23.717Z,97538.75
2023-10-23T19:49:51.890Z,97543.72
2023-10-23T19:52:19.675Z,97541.63
2023-10-23T19:54:48.834Z,97545.63
2023-10-23T19:57:18.618Z,97539.19
2023-10-23T19:59:46.550Z,97542.13
2023-10-23T20:02:14.585Z,97553.88
2023-10-23T20:04:42.668Z,97539.34
2023-10-23T20:07:10.767Z,97552.19
2023-10-23T20:09:38.811Z,97540.69
2023-10-23T20:12:06.854Z,97547.16
2023-10-23T20:14:34.730Z,97554.00
2023-10-23T20:17:02.610Z,97557.75
2023-10-23T20:19:30.448Z,97546.84
2023-10-23T20:21:59.338Z,97547.34
2023-10-23T20:24:27.416Z,97546.69
2023-10-23T20:26:55.640Z,97549.84
2023-10-23T20:29:23.477Z,97548.91
2023-10-23T20:31:51.403Z,97550.44
2023-10-23T20:34:19.357Z,97542.75
2023-10-23T20:36:47.363Z,97540.91
2023-10-23T20:39:15.106Z,97541.75
2023-10-23T20:41:42.875Z,97542.94
2023-10-23T20:44:10.703Z,97540.38
2023-10-23T20:46:38.461Z,97542.81
2023-10-23T20:49:07.028Z,97539.16
2023-10-23T20:51:34.782Z,97535.91
2023-10-23T20:54:02.668Z,97537.56
2023-10-23T20:56:30.420Z,97540.59
2023-10-23T20:59:00.728Z,97543.94
2023-10-23T21:01:29.301Z,97551.28
2023-10-23T21:03:57.197Z,97546.97
2023-10-23T21:06:26.591Z,97549.69
2023-10-23T21:08:55.528Z,97545.25
2023-10-23T21:11:24.020Z,97545.47
2023-10-23T21:13:51.883Z,97547.50
2023-10-23T21:16:19.695Z,97540.81
2023-10-23T21:18:47.560Z,97547.09
2023-10-23T21:21:15.287Z,97549.88
2023-10-23T21:23:43.119Z,97549.50
2023-10-23T21:26:10.970Z,97553.69
2023-10-23T21:28:40.601Z,97550.66
2023-10-23T21:31:10.163Z,97558.16
2023-10-23T21:33:38.082Z,97556.34
2023-10-23T21:36:06.314Z,97568.81
2023-10-23T21:38:34.127Z,97550.63
2023-10-23T21:41:04.335Z,97553.94
2023-10-23T21:43:32.213Z,97558.84
2023-10-23T21:46:15.525Z,97563.59
2023-10-23T21:48:45.556Z,97563.66
2023-10-23T21:51:13.366Z,97556.38
2023-10-23T21:53:41.287Z,97553.72
2023-10-23T21:56:09.812Z,97546.72
2023-10-23T21:59:07.549Z,97541.59
2023-10-23T22:01:25.807Z,97542.31
2023-10-23T22:03:53.802Z,97543.28
2023-10-23T22:06:21.864Z,97543.44
2023-10-23T22:08:50.300Z,97547.69
2023-10-23T22:11:19.663Z,97537.44
2023-10-23T22:13:47.805Z,97547.81
2023-10-23T22:16:15.692Z,97538.56
2023-10-23T22:18:43.486Z,97535.31
2023-10-23T22:21:11.435Z,97539.13
2023-10-23T22:23:39.187Z,97534.34
2023-10-23T22:26:07.053Z,97538.63
2023-10-23T22:28:34.777Z,97540.03
2023-10-23T22:31:02.931Z,97547.34
2023-10-23T22:33:31.928Z,97549.09
2023-10-23T22:35:59.758Z,97552.13
2023-10-23T22:38:27.546Z,97548.75
2023-10-23T22:40:55.345Z,97538.28
2023-10-23T22:43:23.103Z,97536.28
2023-10-23T22:45:59.834Z,97527.88
2023-10-23T22:48:30.957Z,97537.47
2023-10-23T22:50:59.145Z,97540.41
2023-10-23T22:53:27.062Z,97543.72
2023-10-23T22:55:55.326Z,97549.78
2023-10-23T22:58:32.766Z,97549.72
2023-10-23T23:01:00.894Z,97545.41
2023-10-23T23:03:29.178Z,97551.81
2023-10-23T23:06:06.267Z,97556.00
2023-10-23T23:08:38.737Z,97557.63
2023-10-23T23:11:06.949Z,97548.91
2023-10-23T23:13:34.885Z,97553.47
2023-10-23T23:16:06.358Z,97552.88
2023-10-23T23:18:35.249Z,97545.88
2023-10-23T23:21:04.403Z,97542.03
2023-10-23T23:23:32.154Z,97530.53
2023-10-23T23:25:59.879Z,97524.69
2023-10-23T23:28:27.667Z,97528.59
2023-10-23T23:30:55.504Z,97528.84
2023-10-23T23:33:23.296Z,97533.91
2023-10-23T23:35:53.768Z,97527.38
2023-10-23T23:38:21.492Z,97536.53
2023-10-23T23:40:49.765Z,97529.41
2023-10-23T23:43:17.535Z,97532.34
2023-10-23T23:45:45.871Z,97533.09
2023-10-23T23:48:15.549Z,97526.91
2023-10-23T23:50:43.452Z,97536.19
2023-10-23T23:53:11.247Z,97527.94
2023-10-23T23:55:39.055Z,97529.06
2023-10-23T23:58:06.824Z,97530.03
